createdAt,value
2023-04-27T00:00:11.261Z,101534.31
2023-04-27T00:01:13.638Z,101537.97
2023-04-27T00:02:15.685Z,101539.75
2023-04-27T00:03:17.616Z,101542.50
2023-04-27T00:04:20.683Z,101534.34
2023-04-27T00:05:22.432Z,101540.69
2023-04-27T00:06:24.309Z,101536.16
2023-04-27T00:07:26.516Z,101539.63
2023-04-27T00:08:27.898Z,101537.97
2023-04-27T00:09:29.399Z,101540.72
2023-04-27T00:10:30.918Z,101538.91
2023-04-27T00:11:32.314Z,101530.78
2023-04-27T00:12:34.011Z,101534.41
2023-04-27T00:13:35.575Z,101528.94
2023-04-27T00:14:37.021Z,101527.03
2023-04-27T00:15:38.479Z,101528.75
2023-04-27T00:16:39.917Z,101535.25
2023-04-27T00:17:43.124Z,101529.91
2023-04-27T00:18:44.593Z,101533.53
2023-04-27T00:19:47.420Z,101524.47
2023-04-27T00:20:48.951Z,101529.84
2023-04-27T00:21:50.572Z,101530.78
2023-04-27T00:22:51.980Z,101533.47
2023-04-27T00:23:54.359Z,101529.91
2023-04-27T00:24:55.863Z,101530.81
2023-04-27T00:25:57.313Z,101527.19
2023-04-27T00:26:58.758Z,101525.34
2023-04-27T00:28:00.212Z,101526.19
2023-04-27T00:29:01.658Z,101525.34
2023-04-27T00:30:04.284Z,101537.03
2023-04-27T00:31:05.901Z,101534.34
2023-04-27T00:32:07.713Z,101531.59
2023-04-27T00:33:09.258Z,101534.22
2023-04-27T00:34:10.862Z,101535.22
2023-04-27T00:35:12.435Z,101536.16
2023-04-27T00:36:13.881Z,101534.38
2023-04-27T00:37:15.298Z,101527.19
2023-04-27T00:38:16.742Z,101522.66
2023-04-27T00:39:18.177Z,101528.03
2023-04-27T00:40:20.713Z,101534.31
2023-04-27T00:41:23.019Z,101544.16
2023-04-27T00:42:25.135Z,101533.31
2023-04-27T00:43:26.560Z,101537.91
2023-04-27T00:44:28.364Z,101537.94
2023-04-27T00:45:29.859Z,101537.03
2023-04-27T00:46:32.760Z,101545.16
2023-04-27T00:47:34.887Z,101538.81
2023-04-27T00:48:36.486Z,101538.72
2023-04-27T00:49:38.292Z,101543.19
2023-04-27T00:50:39.733Z,101541.31
2023-04-27T00:51:41.322Z,101545.75
2023-04-27T00:52:43.654Z,101544.97
2023-04-27T00:53:45.106Z,101548.53
2023-04-27T00:54:50.900Z,101540.53
2023-04-27T00:55:52.401Z,101545.06
2023-04-27T00:56:53.842Z,101542.22
2023-04-27T00:57:55.362Z,101546.72
2023-04-27T00:58:56.973Z,101546.72
2023-04-27T01:00:00.426Z,101544.09
2023-04-27T01:01:02.110Z,101546.69
2023-04-27T01:02:03.834Z,101543.88
2023-04-27T01:03:07.124Z,101541.25
2023-04-27T01:04:08.876Z,101541.28
2023-04-27T01:05:10.705Z,101552.22
2023-04-27T01:06:12.157Z,101544.94
2023-04-27T01:07:13.790Z,101539.44
2023-04-27T01:08:15.606Z,101543.09
2023-04-27T01:09:19.710Z,101550.28
2023-04-27T01:10:21.156Z,101541.28
2023-04-27T01:11:23.434Z,101554.75
2023-04-27T01:12:25.109Z,101548.38
2023-04-27T01:13:26.520Z,101554.66
2023-04-27T01:14:27.957Z,101554.78
2023-04-27T01:15:29.566Z,101554.84
2023-04-27T01:16:32.689Z,101552.97
2023-04-27T01:17:34.270Z,101552.94
2023-04-27T01:18:35.695Z,101549.34
2023-04-27T01:19:37.213Z,101554.75
2023-04-27T01:20:38.937Z,101560.22
2023-04-27T01:21:40.819Z,101553.81
2023-04-27T01:22:42.946Z,101551.94
2023-04-27T01:23:44.383Z,101548.38
2023-04-27T01:24:45.914Z,101560.97
2023-04-27T01:25:47.334Z,101559.16
2023-04-27T01:26:49.663Z,101554.78
2023-04-27T01:27:51.254Z,101558.38
2023-04-27T01:28:52.671Z,101561.19
2023-04-27T01:29:54.096Z,101555.69
2023-04-27T01:30:55.615Z,101559.31
2023-04-27T01:31:57.412Z,101564.63
2023-04-27T01:32:58.933Z,101562.75
2023-04-27T01:34:00.404Z,101563.59
2023-04-27T01:35:01.861Z,101560.91
2023-04-27T01:36:03.658Z,101554.75
2023-04-27T01:37:05.078Z,101561.88
2023-04-27T01:38:06.651Z,101561.00
2023-04-27T01:39:09.837Z,101569.19
2023-04-27T01:40:11.735Z,101561.94
2023-04-27T01:41:13.263Z,101566.44
2023-04-27T01:42:14.663Z,101570.00
2023-04-27T01:43:16.159Z,101573.56
2023-04-27T01:44:17.573Z,101575.34
2023-04-27T01:45:19.023Z,101563.63
2023-04-27T01:46:20.617Z,101573.56
2023-04-27T01:47:22.035Z,101578.03
2023-04-27T01:48:23.442Z,101582.56
2023-04-27T01:49:24.841Z,101573.53
2023-04-27T01:50:26.290Z,101575.25
2023-04-27T01:51:27.719Z,101585.34
2023-04-27T01:52:29.207Z,101573.56
2023-04-27T01:53:31.001Z,101577.25
2023-04-27T01:54:32.423Z,101587.06
2023-04-27T01:55:33.821Z,101587.00
2023-04-27T01:56:35.262Z,101591.47
2023-04-27T01:57:36.674Z,101591.53
2023-04-27T01:58:38.175Z,101588.88
2023-04-27T01:59:39.619Z,101582.53
2023-04-27T02:00:41.048Z,101577.16
2023-04-27T02:01:42.559Z,101588.00
2023-04-27T02:02:45.279Z,101594.31
2023-04-27T02:03:47.076Z,101584.44
2023-04-27T02:04:48.720Z,101581.69
2023-04-27T02:05:50.390Z,101580.81
2023-04-27T02:06:51.977Z,101588.00
2023-04-27T02:07:53.573Z,101590.63
2023-04-27T02:08:55.053Z,101591.63
2023-04-27T02:09:56.463Z,101587.06
2023-04-27T02:10:57.936Z,101584.31
2023-04-27T02:11:59.388Z,101595.13
2023-04-27T02:13:00.802Z,101598.69
2023-04-27T02:14:02.299Z,101597.75
2023-04-27T02:15:04.172Z,101590.56
2023-04-27T02:16:06.095Z,101598.78
2023-04-27T02:17:07.508Z,101597.81
2023-04-27T02:18:09.116Z,101604.19
2023-04-27T02:19:10.695Z,101591.59
2023-04-27T02:20:12.449Z,101591.63
2023-04-27T02:21:13.928Z,101598.81
2023-04-27T02:22:16.187Z,101606.03
2023-04-27T02:23:17.597Z,101599.69
2023-04-27T02:24:19.041Z,101597.00
2023-04-27T02:25:23.273Z,101606.00
2023-04-27T02:26:29.279Z,101604.16
2023-04-27T02:27:30.931Z,101598.75
2023-04-27T02:28:32.926Z,101595.97
2023-04-27T02:29:38.760Z,101604.16
2023-04-27T02:30:40.786Z,101602.28
2023-04-27T02:31:42.311Z,101611.34
2023-04-27T02:32:44.117Z,101610.41
2023-04-27T02:33:45.599Z,101619.41
2023-04-27T02:34:47.297Z,101611.34
2023-04-27T02:35:48.717Z,101616.75
2023-04-27T02:36:50.159Z,101609.59
2023-04-27T02:37:51.605Z,101610.41
2023-04-27T02:38:53.088Z,101617.63
2023-04-27T02:39:54.702Z,101613.91
2023-04-27T02:40:56.209Z,101612.16
2023-04-27T02:41:57.611Z,101611.22
2023-04-27T02:42:59.045Z,101610.22
2023-04-27T02:44:00.610Z,101617.41
2023-04-27T02:45:02.207Z,101607.47
2023-04-27T02:46:04.620Z,101618.28
2023-04-27T02:47:06.174Z,101616.50
2023-04-27T02:48:07.708Z,101612.91
2023-04-27T02:49:09.201Z,101611.97
2023-04-27T02:50:10.759Z,101611.19
2023-04-27T02:51:12.165Z,101612.91
2023-04-27T02:52:13.579Z,101613.81
2023-04-27T02:53:15.409Z,101620.19
2023-04-27T02:54:17.031Z,101617.44
2023-04-27T02:55:18.512Z,101622.91
2023-04-27T02:56:20.636Z,101618.31
2023-04-27T02:57:22.020Z,101616.53
2023-04-27T02:58:24.008Z,101614.69
2023-04-27T02:59:25.333Z,101622.81
2023-04-27T03:00:26.969Z,101616.53
2023-04-27T03:01:28.980Z,101617.41
2023-04-27T03:02:30.456Z,101624.66
2023-04-27T03:03:32.146Z,101621.81
2023-04-27T03:04:33.778Z,101622.72
2023-04-27T03:05:36.371Z,101617.41
2023-04-27T03:06:37.811Z,101619.19
2023-04-27T03:07:39.262Z,101612.78
2023-04-27T03:08:40.924Z,101623.59
2023-04-27T03:09:42.299Z,101623.50
2023-04-27T03:10:43.753Z,101624.47
2023-04-27T03:11:45.260Z,101622.56
2023-04-27T03:12:46.690Z,101623.50
2023-04-27T03:13:48.182Z,101627.94
2023-04-27T03:14:49.583Z,101624.38
2023-04-27T03:15:51.157Z,101631.59
2023-04-27T03:16:53.236Z,101624.38
2023-04-27T03:17:54.866Z,101625.34
2023-04-27T03:18:56.285Z,101625.38
2023-04-27T03:19:57.742Z,101626.38
2023-04-27T03:21:09.063Z,101628.19
2023-04-27T03:22:10.460Z,101633.53
2023-04-27T03:23:12.086Z,101636.19
2023-04-27T03:24:13.523Z,101630.78
2023-04-27T03:25:15.496Z,101634.31
2023-04-27T03:26:16.924Z,101633.50
2023-04-27T03:27:18.324Z,101630.81
2023-04-27T03:28:19.790Z,101630.81
2023-04-27T03:29:21.191Z,101633.47
2023-04-27T03:30:22.659Z,101624.28
2023-04-27T03:31:24.180Z,101636.91
2023-04-27T03:32:25.921Z,101628.69
2023-04-27T03:33:28.534Z,101632.38
2023-04-27T03:34:30.476Z,101638.75
2023-04-27T03:35:31.898Z,101638.84
2023-04-27T03:36:33.328Z,101637.00
2023-04-27T03:37:34.810Z,101639.69
2023-04-27T03:38:36.419Z,101640.59
2023-04-27T03:39:37.873Z,101642.34
2023-04-27T03:40:39.556Z,101641.53
2023-04-27T03:41:40.994Z,101646.94
2023-04-27T03:42:42.501Z,101647.81
2023-04-27T03:43:43.920Z,101655.81
2023-04-27T03:44:45.439Z,101646.75
2023-04-27T03:45:47.371Z,101641.34
2023-04-27T03:46:48.796Z,101650.50
2023-04-27T03:47:50.511Z,101643.22
2023-04-27T03:48:51.962Z,101654.03
2023-04-27T03:49:53.431Z,101651.34
2023-04-27T03:50:55.242Z,101653.97
2023-04-27T03:51:56.856Z,101653.84
2023-04-27T03:52:58.312Z,101650.31
2023-04-27T03:54:00.174Z,101654.84
2023-04-27T03:55:01.586Z,101655.66
2023-04-27T03:56:03.594Z,101653.75
2023-04-27T03:57:05.124Z,101658.28
2023-04-27T03:58:07.053Z,101661.00
2023-04-27T03:59:08.469Z,101655.63
2023-04-27T04:00:14.530Z,101661.03
2023-04-27T04:01:16.537Z,101657.47
2023-04-27T04:02:17.991Z,101663.72
2023-04-27T04:03:19.707Z,101652.94
2023-04-27T04:04:21.599Z,101664.81
2023-04-27T04:05:23.416Z,101649.34
2023-04-27T04:06:25.055Z,101660.25
2023-04-27T04:07:26.545Z,101663.03
2023-04-27T04:08:27.943Z,101655.88
2023-04-27T04:09:29.364Z,101663.34
2023-04-27T04:10:30.850Z,101661.38
2023-04-27T04:11:32.252Z,101667.72
2023-04-27T04:12:33.878Z,101657.75
2023-04-27T04:13:36.043Z,101663.25
2023-04-27T04:14:37.464Z,101668.63
2023-04-27T04:15:38.959Z,101665.97
2023-04-27T04:16:40.355Z,101676.72
2023-04-27T04:17:41.889Z,101674.06
2023-04-27T04:18:43.342Z,101674.00
2023-04-27T04:19:44.886Z,101668.53
2023-04-27T04:20:46.270Z,101675.72
2023-04-27T04:21:47.720Z,101686.63
2023-04-27T04:22:49.166Z,101683.13
2023-04-27T04:23:50.604Z,101679.59
2023-04-27T04:24:52.344Z,101687.75
2023-04-27T04:25:56.884Z,101675.84
2023-04-27T04:26:58.588Z,101693.19
2023-04-27T04:28:00.042Z,101686.75
2023-04-27T04:29:01.640Z,101685.94
2023-04-27T04:30:05.124Z,101685.00
2023-04-27T04:31:08.281Z,101683.16
2023-04-27T04:32:09.748Z,101682.28
2023-04-27T04:33:11.185Z,101682.25
2023-04-27T04:34:12.839Z,101689.50
2023-04-27T04:35:14.305Z,101686.69
2023-04-27T04:36:15.782Z,101686.75
2023-04-27T04:37:20.203Z,101682.28
2023-04-27T04:38:21.610Z,101685.03
2023-04-27T04:39:23.387Z,101694.09
2023-04-27T04:40:25.332Z,101690.41
2023-04-27T04:41:26.849Z,101696.69
2023-04-27T04:42:31.143Z,101692.13
2023-04-27T04:43:32.798Z,101691.16
2023-04-27T04:44:34.280Z,101700.16
2023-04-27T04:45:35.694Z,101698.38
2023-04-27T04:46:37.365Z,101689.25
2023-04-27T04:47:39.580Z,101693.94
2023-04-27T04:48:41.374Z,101693.00
2023-04-27T04:49:42.817Z,101699.44
2023-04-27T04:50:44.213Z,101704.84
2023-04-27T04:51:45.678Z,101698.56
2023-04-27T04:52:47.093Z,101696.81
2023-04-27T04:53:49.136Z,101699.59
2023-04-27T04:54:53.586Z,101697.78
2023-04-27T04:55:55.064Z,101698.72
2023-04-27T04:56:58.244Z,101700.63
2023-04-27T04:57:59.642Z,101699.75
2023-04-27T04:59:01.392Z,101699.84
2023-04-27T05:00:03.944Z,101706.09
2023-04-27T05:01:06.873Z,101711.59
2023-04-27T05:02:08.404Z,101703.47
2023-04-27T05:03:09.892Z,101704.34
2023-04-27T05:04:11.946Z,101706.16
2023-04-27T05:05:13.605Z,101707.97
2023-04-27T05:06:15.043Z,101701.59
2023-04-27T05:07:20.915Z,101698.25
2023-04-27T05:08:24.892Z,101704.47
2023-04-27T05:09:26.274Z,101694.56
2023-04-27T05:10:27.712Z,101709.94
2023-04-27T05:11:29.126Z,101701.81
2023-04-27T05:12:30.914Z,101700.94
2023-04-27T05:13:32.368Z,101696.41
2023-04-27T05:14:33.813Z,101706.47
2023-04-27T05:15:37.270Z,101703.72
2023-04-27T05:16:38.757Z,101699.16
2023-04-27T05:17:40.284Z,101707.38
2023-04-27T05:18:41.890Z,101711.84
2023-04-27T05:19:43.620Z,101706.44
2023-04-27T05:20:45.233Z,101714.66
2023-04-27T05:21:46.771Z,101717.50
2023-04-27T05:22:48.196Z,101700.44
2023-04-27T05:23:49.857Z,101703.19
2023-04-27T05:24:51.857Z,101711.28
2023-04-27T05:25:53.471Z,101711.31
2023-04-27T05:26:55.073Z,101715.66
2023-04-27T05:27:56.513Z,101704.06
2023-04-27T05:28:57.950Z,101704.13
2023-04-27T05:29:59.342Z,101709.34
2023-04-27T05:31:00.770Z,101702.22
2023-04-27T05:32:02.213Z,101704.16
2023-04-27T05:33:04.786Z,101686.06
2023-04-27T05:34:06.295Z,101698.88
2023-04-27T05:35:08.036Z,101698.81
2023-04-27T05:36:09.630Z,101697.06
2023-04-27T05:37:11.528Z,101698.00
2023-04-27T05:38:17.336Z,101698.94
2023-04-27T05:39:18.791Z,101704.31
2023-04-27T05:40:20.588Z,101699.88
2023-04-27T05:41:22.125Z,101692.63
2023-04-27T05:42:23.582Z,101709.91
2023-04-27T05:43:25.605Z,101704.56
2023-04-27T05:44:29.273Z,101703.69
2023-04-27T05:45:30.890Z,101705.50
2023-04-27T05:46:33.100Z,101706.28
2023-04-27T05:47:34.624Z,101704.50
2023-04-27T05:48:36.115Z,101701.94
2023-04-27T05:49:37.536Z,101703.88
2023-04-27T05:50:38.947Z,101703.03
2023-04-27T05:51:41.259Z,101700.31
2023-04-27T05:52:42.687Z,101699.38
2023-04-27T05:53:44.137Z,101701.22
2023-04-27T05:54:50.270Z,101703.03
2023-04-27T05:55:51.688Z,101703.06
2023-04-27T05:56:53.199Z,101703.09
2023-04-27T05:58:06.666Z,101705.88
2023-04-27T05:59:09.904Z,101701.44
2023-04-27T06:00:12.630Z,101699.63
2023-04-27T06:01:14.297Z,101697.84
2023-04-27T06:02:16.649Z,101707.78
2023-04-27T06:03:18.383Z,101712.47
2023-04-27T06:04:20.041Z,101699.69
2023-04-27T06:05:21.918Z,101705.00
2023-04-27T06:06:23.360Z,101713.16
2023-04-27T06:07:24.860Z,101708.66
2023-04-27T06:08:27.294Z,101705.09
2023-04-27T06:09:29.998Z,101717.69
2023-04-27T06:10:31.413Z,101717.72
2023-04-27T06:11:32.788Z,101710.44
2023-04-27T06:12:34.264Z,101715.72
2023-04-27T06:13:35.724Z,101717.72
2023-04-27T06:14:37.553Z,101704.22
2023-04-27T06:15:38.989Z,101728.75
2023-04-27T06:16:40.998Z,101717.91
2023-04-27T06:17:43.957Z,101720.66
2023-04-27T06:18:45.586Z,101713.41
2023-04-27T06:19:47.036Z,101717.03
2023-04-27T06:20:48.457Z,101725.84
2023-04-27T06:21:51.225Z,101716.78
2023-04-27T06:22:52.658Z,101721.38
2023-04-27T06:23:54.057Z,101715.81
2023-04-27T06:24:55.489Z,101716.69
2023-04-27T06:25:58.630Z,101729.44
2023-04-27T06:27:00.032Z,101726.59
2023-04-27T06:28:01.580Z,101719.38
2023-04-27T06:29:07.749Z,101723.88
2023-04-27T06:30:09.673Z,101729.34
2023-04-27T06:31:11.121Z,101722.94
2023-04-27T06:32:12.534Z,101722.06
2023-04-27T06:33:13.924Z,101730.41
2023-04-27T06:34:15.387Z,101724.22
2023-04-27T06:35:17.182Z,101730.63
2023-04-27T06:36:19.420Z,101725.28
2023-04-27T06:37:20.922Z,101726.03
2023-04-27T06:38:22.362Z,101727.88
2023-04-27T06:39:23.787Z,101725.34
2023-04-27T06:40:26.309Z,101718.03
2023-04-27T06:41:27.802Z,101725.25
2023-04-27T06:42:29.302Z,101728.00
2023-04-27T06:43:30.865Z,101728.66
2023-04-27T06:44:32.406Z,101732.34
2023-04-27T06:45:33.837Z,101726.94
2023-04-27T06:46:35.594Z,101726.97
2023-04-27T06:47:37.054Z,101718.22
2023-04-27T06:48:38.486Z,101719.13
2023-04-27T06:49:39.950Z,101725.44
2023-04-27T06:50:41.344Z,101722.72
2023-04-27T06:51:43.138Z,101721.88
2023-04-27T06:52:44.584Z,101726.38
2023-04-27T06:53:46.063Z,101723.81
2023-04-27T06:54:47.635Z,101721.13
2023-04-27T06:55:49.436Z,101727.47
2023-04-27T06:56:51.023Z,101727.47
2023-04-27T06:57:52.458Z,101729.25
2023-04-27T06:58:53.846Z,101727.47
2023-04-27T06:59:55.265Z,101727.47
2023-04-27T07:00:56.774Z,101728.31
2023-04-27T07:01:58.289Z,101722.91
2023-04-27T07:02:59.954Z,101732.78
2023-04-27T07:04:01.567Z,101737.38
2023-04-27T07:05:03.387Z,101736.41
2023-04-27T07:06:04.941Z,101734.59
2023-04-27T07:07:06.413Z,101736.31
2023-04-27T07:08:08.825Z,101735.50
2023-04-27T07:09:26.196Z,101738.16
2023-04-27T07:10:28.325Z,101742.69
2023-04-27T07:11:29.709Z,101744.31
2023-04-27T07:12:31.233Z,101743.53
2023-04-27T07:13:32.931Z,101740.81
2023-04-27T07:14:34.386Z,101745.38
2023-04-27T07:15:35.830Z,101739.09
2023-04-27T07:16:37.374Z,101744.50
2023-04-27T07:17:38.897Z,101739.97
2023-04-27T07:18:42.752Z,101735.53
2023-04-27T07:19:44.826Z,101742.84
2023-04-27T07:20:46.213Z,101742.72
2023-04-27T07:21:47.853Z,101740.03
2023-04-27T07:22:49.404Z,101748.28
2023-04-27T07:23:51.050Z,101741.91
2023-04-27T07:24:52.515Z,101740.94
2023-04-27T07:25:54.189Z,101742.75
2023-04-27T07:26:57.673Z,101753.56
2023-04-27T07:27:59.675Z,101741.75
2023-04-27T07:29:04.254Z,101750.88
2023-04-27T07:30:13.144Z,101749.06
2023-04-27T07:31:14.714Z,101746.38
2023-04-27T07:32:16.431Z,101743.59
2023-04-27T07:33:17.988Z,101738.13
2023-04-27T07:34:19.449Z,101739.97
2023-04-27T07:35:20.980Z,101739.91
2023-04-27T07:36:22.539Z,101742.63
2023-04-27T07:37:24.196Z,101732.72
2023-04-27T07:38:25.845Z,101738.22
2023-04-27T07:39:27.680Z,101731.06
2023-04-27T07:40:30.788Z,101729.28
2023-04-27T07:41:34.494Z,101742.88
2023-04-27T07:42:38.625Z,101741.91
2023-04-27T07:43:40.331Z,101738.31
2023-04-27T07:44:42.520Z,101742.81
2023-04-27T07:45:45.655Z,101743.75
2023-04-27T07:46:48.893Z,101742.88
2023-04-27T07:47:50.584Z,101741.06
2023-04-27T07:48:52.229Z,101732.00
2023-04-27T07:49:53.637Z,101732.88
2023-04-27T07:50:55.189Z,101734.59
2023-04-27T07:51:57.350Z,101741.03
2023-04-27T07:52:59.496Z,101735.47
2023-04-27T07:54:02.425Z,101736.44
2023-04-27T07:55:04.534Z,101730.16
2023-04-27T07:56:06.531Z,101739.19
2023-04-27T07:57:08.948Z,101743.72
2023-04-27T07:58:11.229Z,101741.97
2023-04-27T07:59:14.916Z,101741.97
2023-04-27T08:00:17.379Z,101745.59
2023-04-27T08:01:21.333Z,101741.06
2023-04-27T08:02:23.142Z,101747.41
2023-04-27T08:03:25.005Z,101739.22
2023-04-27T08:04:27.124Z,101747.41
2023-04-27T08:05:29.200Z,101745.59
2023-04-27T08:06:31.324Z,101748.31
2023-04-27T08:07:37.138Z,101744.63
2023-04-27T08:08:42.554Z,101757.31
2023-04-27T08:09:44.024Z,101754.63
2023-04-27T08:10:45.752Z,101758.31
2023-04-27T08:11:47.340Z,101746.50
2023-04-27T08:12:48.867Z,101744.69
2023-04-27T08:13:50.515Z,101756.47
2023-04-27T08:14:52.662Z,101759.22
2023-04-27T08:15:59.216Z,101751.94
2023-04-27T08:17:00.982Z,101751.94
2023-04-27T08:18:02.569Z,101757.38
2023-04-27T08:19:04.012Z,101751.06
2023-04-27T08:20:07.129Z,101751.97
2023-04-27T08:21:08.651Z,101754.69
2023-04-27T08:22:10.171Z,101761.94
2023-04-27T08:23:11.576Z,101757.41
2023-04-27T08:24:13.004Z,101753.75
2023-04-27T08:25:14.883Z,101760.13
2023-04-27T08:26:16.566Z,101759.19
2023-04-27T08:27:18.008Z,101759.22
2023-04-27T08:28:19.424Z,101760.06
2023-04-27T08:29:27.877Z,101762.75
2023-04-27T08:30:30.137Z,101761.00
2023-04-27T08:31:31.669Z,101756.47
2023-04-27T08:32:33.136Z,101754.66
2023-04-27T08:33:34.537Z,101761.00
2023-04-27T08:34:36.006Z,101762.78
2023-04-27T08:35:37.504Z,101768.16
2023-04-27T08:36:38.920Z,101754.59
2023-04-27T08:37:40.464Z,101766.41
2023-04-27T08:38:41.937Z,101761.94
2023-04-27T08:39:43.350Z,101757.38
2023-04-27T08:40:45.403Z,101756.50
2023-04-27T08:41:46.826Z,101761.94
2023-04-27T08:42:57.649Z,101760.09
2023-04-27T08:43:59.809Z,101750.94
2023-04-27T08:45:01.322Z,101754.50
2023-04-27T08:46:03.282Z,101757.28
2023-04-27T08:47:04.881Z,101760.91
2023-04-27T08:48:06.443Z,101757.38
2023-04-27T08:49:08.215Z,101754.63
2023-04-27T08:50:10.301Z,101762.84
2023-04-27T08:51:14.242Z,101766.44
2023-04-27T08:52:16.764Z,101761.94
2023-04-27T08:53:22.299Z,101770.97
2023-04-27T08:54:23.761Z,101759.22
2023-04-27T08:55:25.350Z,101759.19
2023-04-27T08:56:28.517Z,101766.44
2023-04-27T08:57:29.952Z,101772.75
2023-04-27T08:58:38.328Z,101771.75
2023-04-27T08:59:40.543Z,101769.94
2023-04-27T09:00:44.084Z,101774.53
2023-04-27T09:01:48.251Z,101771.75
2023-04-27T09:02:49.932Z,101769.00
2023-04-27T09:04:07.594Z,101769.91
2023-04-27T09:05:22.358Z,101760.97
2023-04-27T09:06:34.672Z,101768.25
2023-04-27T09:07:36.203Z,101774.59
2023-04-27T09:08:47.718Z,101758.28
2023-04-27T09:09:49.485Z,101766.44
2023-04-27T09:10:52.529Z,101751.97
2023-04-27T09:11:53.966Z,101767.38
2023-04-27T09:13:00.297Z,101767.38
2023-04-27T09:14:22.621Z,101763.72
2023-04-27T09:15:24.309Z,101763.72
2023-04-27T09:16:29.209Z,101767.31
2023-04-27T09:17:31.248Z,101766.44
2023-04-27T09:18:35.352Z,101767.34
2023-04-27T09:19:36.917Z,101768.25
2023-04-27T09:20:43.531Z,101764.66
2023-04-27T09:21:48.121Z,101765.56
2023-04-27T09:22:53.546Z,101748.28
2023-04-27T09:23:55.933Z,101761.91
2023-04-27T09:24:57.330Z,101761.03
2023-04-27T09:26:00.659Z,101755.56
2023-04-27T09:27:03.197Z,101764.63
2023-04-27T09:28:04.717Z,101763.75
2023-04-27T09:29:06.131Z,101758.31
2023-04-27T09:30:15.233Z,101767.31
2023-04-27T09:31:17.034Z,101761.91
2023-04-27T09:32:20.939Z,101764.63
2023-04-27T09:33:27.522Z,101753.75
2023-04-27T09:34:38.688Z,101758.28
2023-04-27T09:35:42.041Z,101753.75
2023-04-27T09:36:43.753Z,101758.28
2023-04-27T09:37:45.263Z,101752.84
2023-04-27T09:38:47.408Z,101756.44
2023-04-27T09:39:49.896Z,101750.84
2023-04-27T09:40:53.540Z,101736.09
2023-04-27T09:41:56.141Z,101738.03
2023-04-27T09:43:01.513Z,101741.63
2023-04-27T09:44:03.698Z,101726.97
2023-04-27T09:45:07.462Z,101727.94
2023-04-27T09:46:09.159Z,101727.06
2023-04-27T09:47:10.727Z,101728.88
2023-04-27T09:48:13.708Z,101734.56
2023-04-27T09:49:16.119Z,101745.38
2023-04-27T09:50:17.650Z,101732.56
2023-04-27T09:51:19.087Z,101728.03
2023-04-27T09:52:20.492Z,101725.44
2023-04-27T09:53:37.144Z,101742.66
2023-04-27T09:54:39.887Z,101738.25
2023-04-27T09:55:59.213Z,101734.63
2023-04-27T09:57:12.058Z,101733.72
2023-04-27T09:58:21.224Z,101745.59
2023-04-27T09:59:28.310Z,101742.88
2023-04-27T10:00:48.921Z,101737.44
2023-04-27T10:01:55.350Z,101744.66
2023-04-27T10:03:18.591Z,101738.28
2023-04-27T10:04:41.762Z,101735.50
2023-04-27T10:06:07.522Z,101740.03
2023-04-27T10:07:12.806Z,101738.22
2023-04-27T10:08:15.056Z,101733.75
2023-04-27T10:09:23.424Z,101733.66
2023-04-27T10:10:25.470Z,101731.88
2023-04-27T10:11:47.814Z,101737.31
2023-04-27T10:12:57.650Z,101740.91
2023-04-27T10:14:08.112Z,101732.78
2023-04-27T10:15:17.370Z,101739.06
2023-04-27T10:16:19.542Z,101734.53
2023-04-27T10:17:32.331Z,101734.56
2023-04-27T10:18:33.866Z,101733.72
2023-04-27T10:19:35.311Z,101729.16
2023-04-27T10:20:37.969Z,101736.38
2023-04-27T10:21:52.285Z,101739.19
2023-04-27T10:22:53.701Z,101718.38
2023-04-27T10:23:55.158Z,101734.72
2023-04-27T10:24:56.932Z,101724.72
2023-04-27T10:26:07.498Z,101723.81
2023-04-27T10:27:12.199Z,101727.44
2023-04-27T10:28:21.217Z,101730.13
2023-04-27T10:29:22.739Z,101732.84
2023-04-27T10:30:26.590Z,101726.50
2023-04-27T10:31:29.445Z,101737.38
2023-04-27T10:32:31.114Z,101729.19
2023-04-27T10:33:43.514Z,101732.88
2023-04-27T10:34:47.429Z,101736.44
2023-04-27T10:35:57.215Z,101729.19
2023-04-27T10:37:07.216Z,101733.75
2023-04-27T10:38:14.829Z,101740.97
2023-04-27T10:39:18.418Z,101736.50
2023-04-27T10:40:19.978Z,101739.22
2023-04-27T10:41:21.514Z,101741.03
2023-04-27T10:42:28.657Z,101743.75
2023-04-27T10:43:32.297Z,101739.19
2023-04-27T10:44:35.373Z,101738.25
2023-04-27T10:45:36.986Z,101740.06
2023-04-27T10:46:50.446Z,101729.91
2023-04-27T10:47:59.049Z,101725.75
2023-04-27T10:49:00.455Z,101724.78
2023-04-27T10:50:04.116Z,101707.84
2023-04-27T10:51:06.377Z,101716.56
2023-04-27T10:52:07.913Z,101719.22
2023-04-27T10:53:09.398Z,101712.00
2023-04-27T10:54:11.658Z,101712.59
2023-04-27T10:55:17.630Z,101716.81
2023-04-27T10:56:19.097Z,101708.22
2023-04-27T10:57:20.591Z,101714.00
2023-04-27T10:58:29.869Z,101696.69
2023-04-27T10:59:49.880Z,101700.84
2023-04-27T11:00:51.567Z,101698.97
2023-04-27T11:01:53.060Z,101689.09
2023-04-27T11:02:56.399Z,101699.44
2023-04-27T11:04:01.989Z,101701.47
2023-04-27T11:05:05.940Z,101690.44
2023-04-27T11:06:07.519Z,101695.22
2023-04-27T11:07:10.136Z,101698.75
2023-04-27T11:08:16.999Z,101690.50
2023-04-27T11:09:27.788Z,101702.50
2023-04-27T11:10:29.222Z,101698.78
2023-04-27T11:11:30.736Z,101695.84
2023-04-27T11:12:32.651Z,101702.25
2023-04-27T11:13:34.084Z,101702.41
2023-04-27T11:14:36.824Z,101695.09
2023-04-27T11:15:58.949Z,101707.06
2023-04-27T11:17:00.354Z,101706.44
2023-04-27T11:18:06.013Z,101704.53
2023-04-27T11:19:07.552Z,101707.50
2023-04-27T11:20:09.526Z,101710.47
2023-04-27T11:21:15.245Z,101725.28
2023-04-27T11:22:19.525Z,101707.72
2023-04-27T11:23:25.423Z,101719.50
2023-04-27T11:24:27.056Z,101717.63
2023-04-27T11:25:29.837Z,101724.34
2023-04-27T11:26:31.275Z,101727.09
2023-04-27T11:27:40.582Z,101722.56
2023-04-27T11:28:43.210Z,101720.75
2023-04-27T11:29:44.942Z,101720.63
2023-04-27T11:30:46.453Z,101713.88
2023-04-27T11:31:51.270Z,101709.31
2023-04-27T11:32:53.664Z,101705.88
2023-04-27T11:33:56.021Z,101699.53
2023-04-27T11:34:59.622Z,101700.88
2023-04-27T11:36:01.288Z,101699.00
2023-04-27T11:37:18.010Z,101694.91
2023-04-27T11:38:21.699Z,101696.69
2023-04-27T11:39:23.857Z,101697.72
2023-04-27T11:40:27.080Z,101686.19
2023-04-27T11:41:35.868Z,101696.06
2023-04-27T11:42:37.298Z,101694.50
2023-04-27T11:43:43.223Z,101700.16
2023-04-27T11:45:16.769Z,101701.28
2023-04-27T11:46:22.211Z,101688.41
2023-04-27T11:47:25.733Z,101703.22
2023-04-27T11:48:27.675Z,101707.28
2023-04-27T11:49:29.084Z,101709.56
2023-04-27T11:50:30.621Z,101704.81
2023-04-27T11:51:33.421Z,101713.28
2023-04-27T11:52:36.355Z,101707.53
2023-04-27T11:53:42.291Z,101714.06
2023-04-27T11:54:56.399Z,101712.94
2023-04-27T11:56:01.668Z,101713.88
2023-04-27T11:57:07.096Z,101715.84